Moscow, Russia
Current Conditions -  °F | °C
As of 8:30 PM on Thursday 30 Oct 2014 (Local Time) from UUWW Reporting Station
Broken Clouds Broken Clouds  
Wind Chill: 32°   Ceiling: 20000
Heat Index: 36°   Visibility: 4mi
Dew Point: 21°   Wind: 4mph
Humidity: 56%   Direction: NA
Pressure: 30.12"   Gusts: NA
Location:  55.75°N, 37.62°E
Report Text: UUWW 301730Z VRB02MPS 6000 SCT100 BKN200 02/M06 Q1020 24000070NOSIG
Loading
Personal Weather Stations






























Interactive Weather Map
Tropical Storm Tracking
New forecast layout! Learn more

10-Day Weather Forecast

Advertisements
Track Severe Weather on mobile